Time;durP1;ratioP1;P1;durP2;ratioP2;P2;SDS_P1;SDS_P2;PMS_P1;PMS_P2;Temp;Humidity;BMP_temperature;BMP_pressure;BME280_temperature;BME280_humidity;BME280_pressure;Samples;Min_cycle;Max_cycle;Signal;HPM_P1;HPM_P2
2023/06/09 00:02:21;;;;;;;7.63;4.80;;;14.90;99.90;;;;;;5074626;28;20205;-60
2023/06/09 00:04:48;;;;;;;7.10;5.23;;;14.90;99.90;;;;;;5075195;28;20231;-60
2023/06/09 00:07:16;;;;;;;5.07;4.53;;;14.90;99.90;;;;;;5074619;28;20217;-59
2023/06/09 00:09:43;;;;;;;8.40;4.93;;;14.90;99.90;;;;;;5075915;28;20208;-60
2023/06/09 00:12:12;;;;;;;6.93;4.90;;;14.90;99.90;;;;;;5075918;28;20217;-59
2023/06/09 00:14:40;;;;;;;7.23;5.13;;;14.80;99.90;;;;;;5076192;28;20205;-60
2023/06/09 00:17:08;;;;;;;5.73;4.80;;;14.80;99.90;;;;;;5075673;28;20796;-60
2023/06/09 00:19:35;;;;;;;5.60;5.10;;;14.70;99.90;;;;;;5075406;28;20216;-60
2023/06/09 00:22:02;;;;;;;6.43;5.73;;;14.70;99.90;;;;;;5075276;28;20201;-59
2023/06/09 00:24:29;;;;;;;7.63;5.30;;;14.70;99.90;;;;;;5075009;28;20244;-59
2023/06/09 00:26:56;;;;;;;8.43;5.10;;;14.70;99.90;;;;;;5074837;28;20225;-59
2023/06/09 00:29:23;;;;;;;7.03;5.30;;;14.70;99.90;;;;;;5074394;28;20209;-60
2023/06/09 00:31:51;;;;;;;8.40;5.17;;;14.70;99.90;;;;;;5074565;28;20209;-59
2023/06/09 00:34:18;;;;;;;5.87;5.30;;;14.70;99.90;;;;;;5074745;28;20212;-60
2023/06/09 00:36:44;;;;;;;5.67;5.00;;;14.70;99.90;;;;;;5074653;28;20232;-59
2023/06/09 00:39:11;;;;;;;5.70;5.10;;;14.80;99.90;;;;;;5075101;28;20244;-59
2023/06/09 00:41:39;;;;;;;6.13;5.13;;;14.80;99.90;;;;;;5074936;28;20285;-59
2023/06/09 00:44:06;;;;;;;6.43;5.27;;;14.80;99.90;;;;;;5074826;28;20560;-59
2023/06/09 00:46:33;;;;;;;6.27;5.67;;;14.90;99.90;;;;;;5074610;28;20236;-59
2023/06/09 00:49:02;;;;;;;7.43;5.50;;;14.90;99.90;;;;;;5075830;28;20204;-60
2023/06/09 00:51:30;;;;;;;6.23;5.40;;;14.90;99.90;;;;;;5075059;28;20221;-59
2023/06/09 00:53:58;;;;;;;6.30;4.80;;;14.90;99.90;;;;;;5074998;28;20208;-59
2023/06/09 00:56:26;;;;;;;7.37;5.37;;;14.90;99.90;;;;;;5074243;28;20229;-59
2023/06/09 00:58:53;;;;;;;7.67;5.63;;;14.90;99.90;;;;;;5075206;28;20260;-60
2023/06/09 01:01:19;;;;;;;6.97;5.40;;;14.90;99.90;;;;;;5074850;28;20211;-60
2023/06/09 01:03:48;;;;;;;7.20;5.53;;;14.90;99.90;;;;;;5074979;28;20256;-59
2023/06/09 01:06:26;;;;;;;6.23;5.17;;;14.90;99.90;;;;;;5072550;28;20209;-60
2023/06/09 01:08:56;;;;;;;6.07;5.37;;;14.90;99.90;;;;;;5074498;28;20203;-60
2023/06/09 01:11:30;;;;;;;6.00;5.20;;;14.90;99.90;;;;;;5074927;28;20254;-60
2023/06/09 01:14:13;;;;;;;5.73;5.07;;;14.90;99.90;;;;;;5074521;28;20208;-60
2023/06/09 01:16:47;;;;;;;7.73;5.27;;;14.90;99.90;;;;;;5097634;22;20255;-56
2023/06/09 01:19:31;;;;;;;7.07;5.00;;;14.90;99.90;;;;;;5079732;28;20251;-56
2023/06/09 01:22:02;;;;;;;7.40;5.20;;;14.80;99.90;;;;;;5051772;28;20205;-56
2023/06/09 01:24:38;;;;;;;5.87;4.80;;;14.80;99.90;;;;;;5051828;28;20206;-58
2023/06/09 01:27:07;;;;;;;7.10;5.03;;;14.80;99.90;;;;;;5051222;28;20285;-57
2023/06/09 01:29:40;;;;;;;5.57;5.07;;;14.70;99.90;;;;;;5051430;28;20247;-56
2023/06/09 01:32:10;;;;;;;5.70;4.83;;;14.70;99.90;;;;;;5051555;28;20670;-57
2023/06/09 01:34:36;;;;;;;7.70;5.37;;;14.60;99.90;;;;;;5051667;28;20205;-57
2023/06/09 01:37:04;;;;;;;6.07;5.10;;;14.60;99.90;;;;;;5051574;28;20240;-56
2023/06/09 01:39:31;;;;;;;6.00;5.40;;;14.60;99.90;;;;;;5051319;28;20348;-57
2023/06/09 01:41:57;;;;;;;6.00;5.40;;;14.50;99.90;;;;;;5051387;28;20212;-56
2023/06/09 01:44:25;;;;;;;5.67;4.57;;;14.50;99.90;;;;;;5051522;28;20205;-59
2023/06/09 01:46:52;;;;;;;6.33;5.20;;;14.50;99.90;;;;;;5051045;28;20236;-59
2023/06/09 01:49:25;;;;;;;5.93;5.27;;;14.50;99.90;;;;;;5051356;28;20224;-58
2023/06/09 01:51:53;;;;;;;5.73;5.13;;;14.50;99.90;;;;;;5051700;28;20209;-59
2023/06/09 01:54:25;;;;;;;6.17;5.17;;;14.40;99.90;;;;;;5051070;28;20688;-60
2023/06/09 01:56:58;;;;;;;6.00;5.30;;;14.30;99.90;;;;;;5050818;28;20225;-60
2023/06/09 01:59:30;;;;;;;6.20;5.60;;;14.30;99.90;;;;;;5051085;28;20226;-60
2023/06/09 02:01:59;;;;;;;8.07;5.20;;;14.20;99.90;;;;;;5051212;28;20206;-58
2023/06/09 02:04:28;;;;;;;5.27;4.83;;;14.20;99.90;;;;;;5051148;28;20283;-60
2023/06/09 02:06:55;;;;;;;7.77;5.53;;;14.30;99.90;;;;;;5050741;28;20241;-60
2023/06/09 02:09:22;;;;;;;5.73;5.17;;;14.30;99.90;;;;;;5051400;28;20658;-59
2023/06/09 02:11:51;;;;;;;8.17;5.47;;;14.30;99.90;;;;;;5051269;28;20208;-60
2023/06/09 02:14:18;;;;;;;6.53;5.90;;;14.30;99.90;;;;;;5051188;28;20233;-58
2023/06/09 02:16:47;;;;;;;6.13;5.10;;;14.30;99.90;;;;;;5051242;28;20650;-59
2023/06/09 02:19:13;;;;;;;6.53;5.57;;;14.30;99.90;;;;;;5054813;28;20352;-59
2023/06/09 02:21:40;;;;;;;9.53;5.10;;;14.20;99.90;;;;;;5054517;28;20216;-59
2023/06/09 02:24:07;;;;;;;6.13;5.50;;;14.20;99.90;;;;;;5054768;28;20260;-60
2023/06/09 02:26:34;;;;;;;6.87;6.00;;;14.20;99.90;;;;;;5054212;28;20622;-59
2023/06/09 02:29:01;;;;;;;7.33;5.70;;;14.10;99.90;;;;;;5054655;28;20228;-60
2023/06/09 02:31:28;;;;;;;8.90;6.00;;;14.10;99.90;;;;;;5054329;28;20210;-59
2023/06/09 02:33:56;;;;;;;7.60;5.60;;;14.10;99.90;;;;;;5054193;28;20683;-59
2023/06/09 02:36:23;;;;;;;6.40;5.77;;;14.10;99.90;;;;;;5053893;28;20296;-59
2023/06/09 02:38:50;;;;;;;6.10;5.50;;;14.10;99.90;;;;;;5054673;28;20235;-60
2023/06/09 02:41:17;;;;;;;8.17;6.30;;;14.10;99.90;;;;;;5054674;28;20251;-59
2023/06/09 02:43:44;;;;;;;7.67;6.17;;;14.20;99.90;;;;;;5054354;28;20245;-59
2023/06/09 02:46:12;;;;;;;7.73;5.80;;;14.20;99.90;;;;;;5053787;28;20206;-59
2023/06/09 02:48:38;;;;;;;9.03;6.13;;;14.30;99.90;;;;;;5054360;28;20266;-58
2023/06/09 02:51:06;;;;;;;6.50;5.90;;;14.30;99.90;;;;;;5054609;28;20205;-59
2023/06/09 02:53:33;;;;;;;8.07;5.70;;;14.20;99.90;;;;;;5054171;28;20205;-59
2023/06/09 02:56:00;;;;;;;8.00;7.00;;;14.20;99.90;;;;;;5054046;28;20217;-60
2023/06/09 02:58:26;;;;;;;6.70;6.00;;;14.20;99.90;;;;;;5053974;28;20288;-58
2023/06/09 03:00:53;;;;;;;6.47;5.87;;;14.20;99.90;;;;;;5053952;28;20676;-59
2023/06/09 03:03:20;;;;;;;6.43;5.83;;;14.20;99.90;;;;;;5053962;28;20608;-60
2023/06/09 03:05:47;;;;;;;12.97;5.93;;;14.10;99.90;;;;;;5054114;28;20209;-60
2023/06/09 03:08:15;;;;;;;7.33;5.73;;;14.10;99.90;;;;;;5053944;28;20229;-61
2023/06/09 03:10:42;;;;;;;6.90;6.20;;;14.10;99.90;;;;;;5053890;28;20269;-59
2023/06/09 03:13:09;;;;;;;7.23;6.37;;;14.10;99.90;;;;;;5053798;28;20647;-62
2023/06/09 03:15:35;;;;;;;8.30;6.17;;;14.10;99.90;;;;;;5053745;28;20241;-60
2023/06/09 03:18:02;;;;;;;6.97;5.73;;;14.10;99.90;;;;;;5053243;28;20229;-61
2023/06/09 03:20:29;;;;;;;6.53;5.73;;;14.10;99.90;;;;;;5053897;28;20217;-60
2023/06/09 03:22:55;;;;;;;6.67;6.03;;;14.10;99.90;;;;;;5053521;28;20217;-59
2023/06/09 03:25:25;;;;;;;8.70;6.60;;;14.10;99.90;;;;;;5053780;28;20232;-60
2023/06/09 03:27:53;;;;;;;7.27;6.27;;;14.10;99.90;;;;;;5053174;28;20240;-60
2023/06/09 03:30:19;;;;;;;6.90;6.23;;;14.00;99.90;;;;;;5052779;28;20205;-59
2023/06/09 03:32:46;;;;;;;8.47;6.17;;;13.90;99.90;;;;;;5053816;28;20205;-60
2023/06/09 03:35:13;;;;;;;10.50;6.70;;;13.80;99.90;;;;;;5053764;28;20206;-61
2023/06/09 03:37:40;;;;;;;8.17;6.37;;;13.70;99.90;;;;;;5053574;28;20234;-60
2023/06/09 03:40:07;;;;;;;6.80;6.10;;;13.70;99.90;;;;;;5053600;28;20232;-60
2023/06/09 03:42:36;;;;;;;6.80;5.73;;;13.60;99.90;;;;;;5053705;28;20205;-60
2023/06/09 03:45:02;;;;;;;7.63;6.30;;;13.60;99.90;;;;;;5053938;28;20206;-60
2023/06/09 03:47:29;;;;;;;8.53;6.40;;;13.60;99.90;;;;;;5053114;28;20229;-60
2023/06/09 03:49:56;;;;;;;9.40;6.17;;;13.60;99.90;;;;;;5053322;28;20201;-60
2023/06/09 03:52:23;;;;;;;9.50;6.17;;;13.70;99.90;;;;;;5053293;28;20209;-60
2023/06/09 03:54:49;;;;;;;7.03;6.20;;;13.70;99.90;;;;;;5053232;28;20213;-60
2023/06/09 03:57:16;;;;;;;7.47;6.50;;;13.80;99.90;;;;;;5052709;28;20229;-59
2023/06/09 03:59:45;;;;;;;6.70;5.90;;;14.00;99.90;;;;;;5052959;28;20228;-60
2023/06/09 04:02:11;;;;;;;7.10;6.07;;;14.00;99.90;;;;;;5053241;28;20209;-59
2023/06/09 04:04:38;;;;;;;7.23;6.53;;;14.10;99.90;;;;;;5053014;28;20267;-60
2023/06/09 04:07:05;;;;;;;7.20;6.50;;;14.10;99.90;;;;;;5052704;28;20625;-60
2023/06/09 04:09:33;;;;;;;7.73;6.33;;;14.30;99.90;;;;;;5052617;28;20205;-60
2023/06/09 04:11:59;;;;;;;7.47;6.40;;;14.40;99.90;;;;;;5052712;28;20636;-60
2023/06/09 04:14:26;;;;;;;10.07;6.80;;;14.50;99.90;;;;;;5052942;28;20206;-60
2023/06/09 04:16:54;;;;;;;7.17;6.47;;;14.70;99.90;;;;;;5052458;28;20241;-59
2023/06/09 04:19:21;;;;;;;6.63;5.93;;;14.80;99.90;;;;;;5052508;28;20602;-59
2023/06/09 04:21:48;;;;;;;8.07;6.23;;;14.90;99.90;;;;;;5052775;28;20205;-60
2023/06/09 04:24:15;;;;;;;7.40;5.70;;;15.10;99.90;;;;;;5052578;28;20228;-61
2023/06/09 04:26:43;;;;;;;6.40;5.73;;;15.20;99.90;;;;;;5052005;28;20603;-60
2023/06/09 04:29:10;;;;;;;8.03;6.13;;;15.50;99.90;;;;;;5052419;28;20583;-59
2023/06/09 04:31:42;;;;;;;6.50;5.20;;;15.70;99.90;;;;;;5052438;28;20560;-59
2023/06/09 04:34:10;;;;;;;7.47;5.77;;;15.80;99.90;;;;;;5052403;28;20205;-58
2023/06/09 04:36:38;;;;;;;6.20;5.60;;;15.90;99.90;;;;;;5052117;28;20226;-59
2023/06/09 04:39:07;;;;;;;6.97;5.85;;;16.00;99.90;;;;;;5052020;28;20221;-59
2023/06/09 04:41:33;;;;;;;6.72;6.00;;;16.10;99.90;;;;;;5052159;28;20218;-61
2023/06/09 04:44:03;;;;;;;6.25;5.65;;;16.40;99.90;;;;;;5052182;28;20213;-60
2023/06/09 04:46:31;;;;;;;6.25;5.68;;;16.60;99.90;;;;;;5051729;28;20667;-60
2023/06/09 04:48:59;;;;;;;5.75;4.97;;;16.90;99.90;;;;;;5051980;28;20201;-60
2023/06/09 04:51:28;;;;;;;5.78;5.22;;;17.50;99.90;;;;;;5051936;28;20205;-60
2023/06/09 04:53:54;;;;;;;6.30;4.63;;;18.70;99.90;;;;;;5052347;28;20210;-60
2023/06/09 04:56:21;;;;;;;5.10;4.43;;;20.20;99.90;;;;;;5052173;28;20209;-58
2023/06/09 04:58:48;;;;;;;5.28;4.18;;;21.60;99.90;;;;;;5052323;28;20267;-60
2023/06/09 05:01:15;;;;;;;6.90;4.05;;;23.00;99.90;;;;;;5052229;28;20736;-61
2023/06/09 05:03:45;;;;;;;4.65;4.25;;;24.00;99.90;;;;;;5052143;28;20205;-60
2023/06/09 05:06:12;;;;;;;5.38;4.13;;;25.20;99.90;;;;;;5051576;28;20214;-58
2023/06/09 05:08:40;;;;;;;4.72;4.05;;;26.10;99.90;;;;;;5052042;28;20232;-61
2023/06/09 05:11:07;;;;;;;4.28;3.88;;;27.10;99.90;;;;;;5051953;28;20762;-61
2023/06/09 05:13:34;;;;;;;4.40;3.97;;;27.80;98.40;;;;;;5052124;28;20721;-59
2023/06/09 05:16:00;;;;;;;4.63;3.50;;;28.50;94.40;;;;;;5051805;28;20210;-59
2023/06/09 05:18:27;;;;;;;5.07;3.78;;;28.90;92.60;;;;;;5051637;28;20618;-59
2023/06/09 05:20:54;;;;;;;4.63;3.75;;;29.10;91.40;;;;;;5051795;28;20484;-53
2023/06/09 05:23:21;;;;;;;10.00;3.95;;;28.90;91.10;;;;;;5051781;28;20205;-57
2023/06/09 05:25:49;;;;;;;4.00;3.60;;;29.00;91.00;;;;;;5051580;28;20564;-54
2023/06/09 05:28:16;;;;;;;4.78;3.58;;;29.80;88.40;;;;;;5051611;28;20229;-57
2023/06/09 05:30:43;;;;;;;3.58;3.28;;;30.40;86.00;;;;;;5051565;28;20216;-54
2023/06/09 05:33:10;;;;;;;4.30;3.90;;;30.90;82.80;;;;;;5051377;28;20563;-54
2023/06/09 05:35:36;;;;;;;4.22;3.60;;;31.20;82.00;;;;;;5051305;28;20241;-58
2023/06/09 05:38:03;;;;;;;4.13;3.75;;;31.60;79.60;;;;;;5051326;28;20320;-55
2023/06/09 05:40:30;;;;;;;4.28;3.88;;;31.40;79.20;;;;;;5051579;28;20230;-54
2023/06/09 05:42:58;;;;;;;4.13;3.72;;;31.70;78.10;;;;;;5051450;28;20582;-56
2023/06/09 05:45:25;;;;;;;3.53;3.22;;;32.60;75.00;;;;;;5051630;28;20232;-57
2023/06/09 05:47:51;;;;;;;7.38;3.95;;;33.40;70.90;;;;;;5051025;28;20233;-54
2023/06/09 05:50:18;;;;;;;5.18;3.70;;;33.90;69.20;;;;;;5051386;28;20582;-54
2023/06/09 05:52:45;;;;;;;3.90;3.33;;;34.60;67.00;;;;;;5053307;28;20206;-55
2023/06/09 05:55:12;;;;;;;3.83;3.53;;;35.10;64.00;;;;;;5055561;28;20201;-54
2023/06/09 05:57:40;;;;;;;4.07;3.67;;;35.50;62.90;;;;;;5055446;28;20229;-54
2023/06/09 06:00:10;;;;;;;4.38;3.33;;;35.70;61.70;;;;;;5055485;28;20801;-54
2023/06/09 06:02:38;;;;;;;3.35;3.05;;;36.00;60.10;;;;;;5055651;28;20684;-54
2023/06/09 06:05:05;;;;;;;4.15;3.70;;;36.20;59.30;;;;;;5055633;28;20265;-55
2023/06/09 06:07:32;;;;;;;3.50;3.13;;;36.30;58.60;;;;;;5055029;28;20221;-54
2023/06/09 06:09:59;;;;;;;3.63;3.33;;;36.40;58.00;;;;;;5055361;28;20202;-55
2023/06/09 06:12:26;;;;;;;4.03;3.00;;;36.50;57.70;;;;;;5055181;28;20247;-55
2023/06/09 06:14:53;;;;;;;3.85;3.42;;;37.00;56.60;;;;;;5054952;28;20252;-55
2023/06/09 06:17:21;;;;;;;4.45;3.55;;;37.70;55.20;;;;;;5054658;28;20233;-58
2023/06/09 06:19:47;;;;;;;3.53;3.22;;;38.40;53.70;;;;;;5055230;28;20237;-57
2023/06/09 06:22:14;;;;;;;3.60;3.30;;;38.70;53.10;;;;;;5055579;28;20202;-55
2023/06/09 06:24:41;;;;;;;6.50;3.50;;;39.20;52.10;;;;;;5055954;28;20201;-54
2023/06/09 06:27:08;;;;;;;3.53;3.05;;;39.70;50.70;;;;;;5054988;28;20222;-56
2023/06/09 06:29:38;;;;;;;3.50;3.20;;;40.00;50.10;;;;;;5055180;28;20237;-54
2023/06/09 06:32:06;;;;;;;4.28;2.97;;;40.40;49.20;;;;;;5055292;28;20694;-54
2023/06/09 06:34:34;;;;;;;3.25;2.95;;;40.60;48.80;;;;;;5055405;28;20214;-54
2023/06/09 06:37:01;;;;;;;3.30;3.00;;;40.70;48.20;;;;;;5054504;28;20233;-54
2023/06/09 06:39:28;;;;;;;5.53;3.10;;;40.70;48.40;;;;;;5054893;28;20218;-61
2023/06/09 06:41:55;;;;;;;5.10;3.30;;;40.80;47.70;;;;;;5054839;28;20223;-56
2023/06/09 06:44:22;;;;;;;5.38;3.00;;;40.80;47.60;;;;;;5074106;28;20216;-56
2023/06/09 06:46:48;;;;;;;3.90;3.10;;;41.00;47.30;;;;;;5074372;28;20255;-57
2023/06/09 06:49:15;;;;;;;4.03;3.30;;;41.20;46.80;;;;;;5074654;28;20226;-57
2023/06/09 06:51:43;;;;;;;5.53;3.00;;;41.70;46.10;;;;;;5074272;28;20685;-56
2023/06/09 06:54:10;;;;;;;3.22;2.90;;;41.90;45.90;;;;;;5074701;28;20211;-55
2023/06/09 06:56:37;;;;;;;3.35;2.97;;;42.40;45.00;;;;;;5073823;28;20220;-61
2023/06/09 06:59:04;;;;;;;5.40;2.78;;;42.90;44.50;;;;;;5074260;28;20208;-55
2023/06/09 07:01:32;;;;;;;3.17;2.90;;;43.60;43.80;;;;;;5074251;28;20224;-59
2023/06/09 07:03:59;;;;;;;3.13;2.65;;;44.40;42.20;;;;;;5074393;28;20236;-58
2023/06/09 07:06:27;;;;;;;3.50;2.60;;;44.60;41.70;;;;;;5073885;28;20203;-56
2023/06/09 07:08:56;;;;;;;2.95;2.65;;;44.80;41.30;;;;;;5073970;28;20295;-56
2023/06/09 07:11:23;;;;;;;3.45;2.70;;;45.00;41.00;;;;;;5073589;28;20200;-58
2023/06/09 07:13:51;;;;;;;4.00;2.70;;;45.20;40.50;;;;;;5073680;28;20666;-57
2023/06/09 07:16:18;;;;;;;3.17;2.92;;;45.20;40.90;;;;;;5073595;28;20685;-55
2023/06/09 07:18:44;;;;;;;4.22;2.78;;;45.40;40.10;;;;;;5074413;28;20212;-59
2023/06/09 07:21:11;;;;;;;3.40;2.50;;;45.70;39.40;;;;;;5073706;28;20258;-58
2023/06/09 07:23:38;;;;;;;5.40;2.67;;;45.60;39.60;;;;;;5073446;28;20204;-59
2023/06/09 07:26:06;;;;;;;3.17;2.20;;;45.70;39.50;;;;;;5073604;28;20204;-62
2023/06/09 07:28:33;;;;;;;2.20;2.00;;;45.90;38.30;;;;;;5073681;28;20274;-60
2023/06/09 07:31:00;;;;;;;3.75;2.40;;;45.90;37.90;;;;;;5073508;28;20200;-60
2023/06/09 07:33:32;;;;;;;3.22;2.42;;;45.60;37.90;;;;;;5073453;28;20274;-59
2023/06/09 07:35:59;;;;;;;2.85;2.40;;;45.30;38.00;;;;;;5072615;28;20629;-58
2023/06/09 07:38:27;;;;;;;3.22;2.17;;;45.60;37.70;;;;;;5073546;28;20224;-60
2023/06/09 07:40:54;;;;;;;2.72;2.40;;;45.50;37.70;;;;;;5073141;28;20255;-59
2023/06/09 07:43:22;;;;;;;2.58;2.30;;;45.40;38.10;;;;;;5073469;28;20200;-59
2023/06/09 07:45:49;;;;;;;5.15;2.28;;;45.30;37.60;;;;;;5072840;28;20212;-59
2023/06/09 07:48:16;;;;;;;2.90;2.10;;;45.20;38.10;;;;;;5072821;28;20228;-59
2023/06/09 07:50:43;;;;;;;3.53;2.15;;;45.10;37.40;;;;;;5072780;28;20204;-59
2023/06/09 07:53:09;;;;;;;2.28;2.00;;;45.10;37.40;;;;;;5073280;28;20201;-58
2023/06/09 07:55:36;;;;;;;4.32;2.40;;;44.80;37.70;;;;;;5073140;28;20205;-59
2023/06/09 07:58:03;;;;;;;4.22;2.00;;;44.60;37.80;;;;;;5072669;28;20599;-59
2023/06/09 08:00:31;;;;;;;2.17;1.98;;;44.10;38.30;;;;;;5072505;28;20217;-59
2023/06/09 08:03:01;;;;;;;2.20;2.00;;;44.20;38.20;;;;;;5072700;28;20208;-59
2023/06/09 08:05:28;;;;;;;2.00;1.80;;;43.90;38.20;;;;;;5071150;28;20204;-60
2023/06/09 08:07:55;;;;;;;3.08;2.00;;;43.50;38.70;;;;;;5066795;28;20235;-61
2023/06/09 08:10:21;;;;;;;2.28;2.08;;;43.20;39.10;;;;;;5072031;28;20565;-61
2023/06/09 08:12:50;;;;;;;2.28;2.08;;;42.40;40.00;;;;;;5072303;28;20220;-58
2023/06/09 08:15:17;;;;;;;1.90;1.80;;;42.20;40.10;;;;;;5071228;28;20295;-60
2023/06/09 08:17:45;;;;;;;2.70;1.90;;;42.10;39.70;;;;;;5070262;28;20262;-58
2023/06/09 08:20:12;;;;;;;2.20;2.00;;;41.80;40.50;;;;;;5071624;28;20232;-60
2023/06/09 08:22:39;;;;;;;2.72;1.70;;;41.40;40.50;;;;;;5072142;28;20585;-60
2023/06/09 08:25:08;;;;;;;3.22;2.17;;;40.90;40.90;;;;;;5069925;28;20209;-60
2023/06/09 08:27:35;;;;;;;3.03;1.98;;;40.20;41.80;;;;;;5071956;28;20242;-59
2023/06/09 08:30:02;;;;;;;2.38;2.15;;;39.60;42.80;;;;;;5072099;28;20229;-62
2023/06/09 08:32:28;;;;;;;2.95;2.30;;;39.20;43.10;;;;;;5072007;28;20303;-59
2023/06/09 08:34:56;;;;;;;1.80;1.70;;;38.90;43.90;;;;;;5072376;28;20220;-58
2023/06/09 08:37:25;;;;;;;2.30;2.10;;;38.90;43.80;;;;;;5071785;28;20225;-60
2023/06/09 08:39:54;;;;;;;2.50;2.30;;;38.60;44.50;;;;;;5072162;28;20224;-60
2023/06/09 08:42:22;;;;;;;3.60;2.08;;;38.30;44.30;;;;;;5071988;28;20694;-61
2023/06/09 08:44:52;;;;;;;3.60;2.30;;;38.30;44.50;;;;;;5071945;28;20204;-62
2023/06/09 08:47:21;;;;;;;2.50;2.20;;;38.00;44.90;;;;;;5071816;28;20515;-60
2023/06/09 08:49:48;;;;;;;2.92;2.65;;;37.20;45.90;;;;;;5071868;28;20332;-59
2023/06/09 08:52:17;;;;;;;2.92;2.50;;;36.00;47.90;;;;;;5072059;28;20205;-59
2023/06/09 08:54:46;;;;;;;2.83;2.05;;;34.40;50.20;;;;;;5072128;28;20201;-60
2023/06/09 08:57:13;;;;;;;2.45;2.25;;;33.10;51.80;;;;;;5071810;28;20224;-57
2023/06/09 08:59:41;;;;;;;2.65;2.45;;;31.80;53.40;;;;;;5072031;28;20243;-57
2023/06/09 09:02:10;;;;;;;2.88;2.47;;;30.50;55.50;;;;;;5071704;28;20343;-55
2023/06/09 09:04:38;;;;;;;5.07;2.40;;;29.40;58.30;;;;;;5072081;28;20205;-59
2023/06/09 09:07:05;;;;;;;5.70;3.20;;;28.90;59.60;;;;;;5071876;28;20232;-58
2023/06/09 09:09:34;;;;;;;2.83;2.30;;;28.60;60.40;;;;;;5071834;28;20201;-61
2023/06/09 09:12:02;;;;;;;2.72;2.47;;;28.20;60.00;;;;;;5071705;28;20291;-61
2023/06/09 09:14:29;;;;;;;5.15;2.50;;;27.70;61.20;;;;;;5071556;28;20212;-62
2023/06/09 09:16:56;;;;;;;2.83;2.53;;;27.40;61.30;;;;;;5071467;28;20233;-58
2023/06/09 09:19:27;;;;;;;4.28;2.65;;;27.20;62.20;;;;;;5072034;28;20215;-59
2023/06/09 09:21:55;;;;;;;3.55;2.30;;;27.10;62.90;;;;;;5071493;28;20311;-61
2023/06/09 09:24:22;;;;;;;4.05;2.63;;;27.00;64.20;;;;;;5071855;28;20204;-55
2023/06/09 09:26:50;;;;;;;2.58;2.20;;;26.90;64.50;;;;;;5070907;28;20370;-56
2023/06/09 09:29:16;;;;;;;3.75;2.30;;;26.90;62.50;;;;;;5072424;28;20296;-57
2023/06/09 09:31:43;;;;;;;2.65;2.33;;;26.70;61.50;;;;;;5072418;28;20204;-56
2023/06/09 09:34:13;;;;;;;2.50;2.30;;;26.70;62.50;;;;;;5071940;28;20212;-56
2023/06/09 09:36:44;;;;;;;2.80;2.38;;;26.70;62.60;;;;;;5071580;28;20225;-56
2023/06/09 09:39:11;;;;;;;2.35;2.15;;;26.70;61.90;;;;;;5071768;28;20209;-56
2023/06/09 09:41:38;;;;;;;2.60;2.40;;;26.70;62.30;;;;;;5072104;28;20236;-57
2023/06/09 09:44:06;;;;;;;3.78;2.70;;;26.70;62.20;;;;;;5072294;28;20205;-56
2023/06/09 09:46:40;;;;;;;2.15;2.00;;;26.80;63.00;;;;;;5072023;28;20208;-56
2023/06/09 09:49:07;;;;;;;2.95;2.38;;;26.80;64.00;;;;;;5072112;28;20214;-56
2023/06/09 09:51:35;;;;;;;2.47;2.28;;;26.90;63.20;;;;;;5071839;28;20682;-56
2023/06/09 09:54:02;;;;;;;6.35;2.72;;;26.90;63.20;;;;;;5071814;28;20201;-57
2023/06/09 09:56:29;;;;;;;3.80;2.30;;;27.00;63.40;;;;;;5071524;28;20236;-56
2023/06/09 09:58:57;;;;;;;4.32;2.40;;;27.00;63.90;;;;;;5071714;28;20220;-56
2023/06/09 10:01:25;;;;;;;2.25;2.05;;;26.90;63.30;;;;;;5071478;28;20698;-55
2023/06/09 10:03:54;;;;;;;2.63;2.28;;;27.10;63.90;;;;;;5071753;28;20236;-55
2023/06/09 10:06:27;;;;;;;2.72;2.47;;;27.10;63.40;;;;;;5071862;28;20220;-55
2023/06/09 10:08:55;;;;;;;2.60;2.40;;;27.10;63.10;;;;;;5071795;28;20635;-55
2023/06/09 10:11:23;;;;;;;2.50;2.30;;;27.10;64.10;;;;;;5071731;28;20252;-55
2023/06/09 10:13:50;;;;;;;2.97;2.40;;;27.10;64.30;;;;;;5071629;28;20655;-56
2023/06/09 10:16:18;;;;;;;3.25;2.40;;;27.10;63.90;;;;;;5071124;28;20209;-55
2023/06/09 10:18:46;;;;;;;4.63;2.25;;;27.20;63.70;;;;;;5071664;28;20598;-56
2023/06/09 10:21:14;;;;;;;2.60;2.20;;;27.30;63.90;;;;;;5071698;28;20228;-56
2023/06/09 10:23:41;;;;;;;4.63;2.55;;;27.50;64.00;;;;;;5071463;28;20212;-56
2023/06/09 10:26:09;;;;;;;3.47;2.20;;;27.50;64.30;;;;;;5071093;28;20299;-57
2023/06/09 10:28:36;;;;;;;3.10;2.50;;;27.50;63.60;;;;;;5071224;28;20707;-55
2023/06/09 10:31:04;;;;;;;2.22;2.03;;;27.70;63.90;;;;;;5071254;28;20205;-55
2023/06/09 10:33:35;;;;;;;3.47;2.53;;;27.80;63.90;;;;;;5071733;28;20311;-55
2023/06/09 10:36:05;;;;;;;2.42;2.17;;;27.80;63.90;;;;;;5071176;28;20205;-55
2023/06/09 10:38:41;;;;;;;3.97;2.25;;;27.90;64.60;;;;;;5072820;28;20225;-57
2023/06/09 10:41:12;;;;;;;3.47;2.28;;;28.00;64.60;;;;;;5074746;28;20229;-55
2023/06/09 10:44:16;;;;;;;2.60;2.38;;;28.30;64.10;;;;;;5074562;28;20227;-55
2023/06/09 10:46:44;;;;;;;3.17;2.63;;;28.50;63.00;;;;;;5064936;28;20274;-55
2023/06/09 10:49:39;;;;;;;2.97;2.33;;;28.30;63.10;;;;;;5074956;28;20208;-56
2023/06/09 10:52:10;;;;;;;3.75;2.28;;;28.20;63.10;;;;;;5074372;28;20682;-55
2023/06/09 10:54:36;;;;;;;3.10;2.53;;;28.30;63.80;;;;;;5074585;28;20389;-54
2023/06/09 10:57:06;;;;;;;3.10;2.47;;;28.40;63.60;;;;;;5074036;28;20575;-55
2023/06/09 11:00:02;;;;;;;2.83;2.60;;;28.60;63.20;;;;;;5075056;28;20205;-55
2023/06/09 11:02:31;;;;;;;2.60;2.40;;;28.70;62.90;;;;;;5074367;28;20228;-56
2023/06/09 11:04:57;;;;;;;2.45;2.05;;;28.90;62.80;;;;;;5074575;28;20205;-56
2023/06/09 11:07:29;;;;;;;2.75;2.30;;;29.10;62.00;;;;;;5074162;28;20225;-56
2023/06/09 11:10:27;;;;;;;2.60;2.30;;;29.00;61.30;;;;;;5074643;28;20305;-57
2023/06/09 11:12:55;;;;;;;3.40;2.53;;;28.90;60.90;;;;;;5012188;28;20202;-57
2023/06/09 11:15:23;;;;;;;4.07;2.40;;;29.10;61.90;;;;;;5060985;28;20220;-56
2023/06/09 11:17:50;;;;;;;5.80;2.67;;;29.40;61.60;;;;;;5073924;28;20233;-57
2023/06/09 11:20:19;;;;;;;2.78;2.13;;;29.80;61.00;;;;;;5073829;28;20271;-57
2023/06/09 11:23:03;;;;;;;2.75;1.88;;;29.70;59.10;;;;;;5074378;28;20317;-56
2023/06/09 11:25:41;;;;;;;2.15;1.98;;;29.50;59.00;;;;;;5074180;28;20208;-56
2023/06/09 11:28:21;;;;;;;2.22;1.98;;;29.40;59.10;;;;;;5074174;28;20233;-56
2023/06/09 11:31:06;;;;;;;2.88;2.50;;;29.50;59.60;;;;;;5074083;28;20674;-56
2023/06/09 11:33:50;;;;;;;3.47;2.15;;;29.60;59.40;;;;;;5074373;28;20224;-56
2023/06/09 11:36:19;;;;;;;3.40;2.22;;;29.80;57.90;;;;;;5074040;28;20214;-56
2023/06/09 11:38:48;;;;;;;2.28;2.00;;;29.90;57.70;;;;;;5074530;28;20211;-56
2023/06/09 11:41:19;;;;;;;1.88;1.77;;;30.00;56.40;;;;;;5074176;28;20706;-57
2023/06/09 11:43:51;;;;;;;3.13;2.00;;;29.80;57.30;;;;;;5073867;28;20657;-59
2023/06/09 11:46:18;;;;;;;2.45;2.03;;;29.70;57.30;;;;;;5073522;28;20258;-56
2023/06/09 11:49:03;;;;;;;5.53;2.90;;;29.60;56.90;;;;;;5074094;28;20270;-57
2023/06/09 11:51:29;;;;;;;2.40;2.20;;;29.60;56.80;;;;;;5073347;28;20227;-56
2023/06/09 11:53:58;;;;;;;2.20;2.00;;;29.80;56.10;;;;;;5073760;28;20215;-59
2023/06/09 11:56:25;;;;;;;3.22;2.28;;;30.10;55.50;;;;;;5073377;28;20216;-57
2023/06/09 11:58:55;;;;;;;4.72;2.10;;;30.10;55.20;;;;;;5073335;28;20295;-57
2023/06/09 12:01:31;;;;;;;2.20;1.92;;;30.20;55.30;;;;;;5073579;28;20316;-54
2023/06/09 12:03:58;;;;;;;2.47;2.22;;;30.50;54.90;;;;;;5073383;28;20205;-56
2023/06/09 12:06:25;;;;;;;3.35;2.05;;;30.60;54.60;;;;;;5073037;28;20209;-57
2023/06/09 12:08:51;;;;;;;2.33;2.10;;;30.70;55.20;;;;;;5073055;28;20208;-56
2023/06/09 12:11:20;;;;;;;5.32;2.22;;;30.70;55.10;;;;;;5073626;28;20436;-56
2023/06/09 12:13:48;;;;;;;3.22;2.10;;;30.60;55.10;;;;;;5073514;28;20207;-57
2023/06/09 12:16:15;;;;;;;2.20;2.00;;;30.40;55.40;;;;;;5072888;28;20220;-58
2023/06/09 12:18:42;;;;;;;2.00;1.80;;;30.20;55.50;;;;;;5073250;28;20217;-56
2023/06/09 12:21:10;;;;;;;2.78;2.03;;;30.00;55.30;;;;;;5073162;28;20285;-58
2023/06/09 12:23:37;;;;;;;2.97;2.08;;;29.90;55.10;;;;;;5073119;28;20282;-58
2023/06/09 12:26:06;;;;;;;2.60;2.33;;;29.70;55.50;;;;;;5072771;28;20247;-56
2023/06/09 12:28:34;;;;;;;3.85;2.15;;;29.70;55.50;;;;;;5073105;28;20256;-56
2023/06/09 12:31:09;;;;;;;6.03;2.00;;;29.70;56.20;;;;;;5073419;28;20201;-56
2023/06/09 12:33:37;;;;;;;2.05;1.85;;;29.40;56.70;;;;;;5073132;28;20208;-57
2023/06/09 12:36:07;;;;;;;2.55;2.20;;;29.20;58.30;;;;;;5072641;28;20212;-58
2023/06/09 12:38:37;;;;;;;2.33;2.10;;;29.20;57.50;;;;;;5072866;28;20231;-58
2023/06/09 12:41:06;;;;;;;2.65;2.30;;;29.40;56.80;;;;;;5073080;28;20311;-58
2023/06/09 12:43:45;;;;;;;3.17;2.50;;;29.30;56.40;;;;;;5072800;28;20205;-56
2023/06/09 12:46:13;;;;;;;4.32;2.25;;;29.30;56.70;;;;;;5072626;28;20286;-56
2023/06/09 12:49:02;;;;;;;3.40;2.35;;;29.40;56.80;;;;;;5072749;28;20267;-56
2023/06/09 12:51:29;;;;;;;2.40;2.20;;;29.50;56.80;;;;;;5068784;28;20252;-56
2023/06/09 12:53:56;;;;;;;3.35;2.28;;;29.40;56.50;;;;;;5073048;28;20212;-58